createdAt,value
2022-09-26T00:00:09.659Z,73.40
2022-09-26T00:00:33.114Z,73.50
2022-09-26T00:00:55.906Z,73.70
2022-09-26T00:01:19.819Z,73.50
2022-09-26T00:01:44.240Z,73.50
2022-09-26T00:02:07.157Z,73.00
2022-09-26T00:02:30.118Z,73.50
2022-09-26T00:02:53.006Z,73.90
2022-09-26T00:03:15.806Z,73.80
2022-09-26T00:03:38.635Z,73.40
2022-09-26T00:04:02.685Z,74.70
2022-09-26T00:04:32.395Z,75.00
2022-09-26T00:04:55.993Z,75.40
2022-09-26T00:05:18.769Z,75.00
2022-09-26T00:05:41.642Z,75.30
2022-09-26T00:06:04.939Z,74.80
2022-09-26T00:06:27.732Z,75.00
2022-09-26T00:06:50.985Z,74.80
2022-09-26T00:07:13.778Z,74.90
2022-09-26T00:07:36.493Z,74.90
2022-09-26T00:07:59.233Z,75.00
2022-09-26T00:08:22.083Z,75.00
2022-09-26T00:08:45.329Z,75.10
2022-09-26T00:09:08.076Z,75.00
2022-09-26T00:09:30.903Z,75.10
2022-09-26T00:09:55.689Z,75.10
2022-09-26T00:10:18.540Z,75.50
2022-09-26T00:10:41.303Z,75.40
2022-09-26T00:11:05.135Z,75.30
2022-09-26T00:11:29.804Z,75.40
2022-09-26T00:11:52.586Z,75.40
2022-09-26T00:12:15.556Z,75.30
2022-09-26T00:12:38.329Z,75.40
2022-09-26T00:13:01.634Z,75.50
2022-09-26T00:13:24.443Z,75.30
2022-09-26T00:13:47.284Z,75.50
2022-09-26T00:14:12.858Z,75.60
2022-09-26T00:14:35.691Z,75.60
2022-09-26T00:14:58.639Z,75.90
2022-09-26T00:15:21.454Z,75.70
2022-09-26T00:15:45.062Z,75.70
2022-09-26T00:16:07.923Z,75.70
2022-09-26T00:16:31.506Z,75.60
2022-09-26T00:16:55.947Z,75.90
2022-09-26T00:17:18.911Z,75.60
2022-09-26T00:17:44.391Z,75.40
2022-09-26T00:18:07.249Z,75.40
2022-09-26T00:18:30.039Z,75.40
2022-09-26T00:18:54.160Z,75.30
2022-09-26T00:19:16.995Z,75.30
2022-09-26T00:19:39.934Z,76.00
2022-09-26T00:20:02.735Z,74.80
2022-09-26T00:20:25.502Z,75.10
2022-09-26T00:20:48.293Z,75.10
2022-09-26T00:21:13.668Z,75.40
2022-09-26T00:21:36.449Z,75.80
2022-09-26T00:21:59.289Z,75.70
2022-09-26T00:22:22.073Z,75.70
2022-09-26T00:22:44.848Z,75.90
2022-09-26T00:23:07.610Z,75.70
2022-09-26T00:23:30.432Z,75.80
2022-09-26T00:23:53.830Z,75.90
2022-09-26T00:24:16.654Z,76.00
2022-09-26T00:24:39.493Z,76.00
2022-09-26T00:25:02.208Z,75.90
2022-09-26T00:25:27.105Z,76.00
2022-09-26T00:25:50.739Z,76.00
2022-09-26T00:26:14.610Z,76.00
2022-09-26T00:26:37.392Z,76.10
2022-09-26T00:27:00.185Z,76.20
2022-09-26T00:27:23.053Z,76.40
2022-09-26T00:27:45.806Z,76.20
2022-09-26T00:28:08.464Z,76.20
2022-09-26T00:28:31.284Z,75.90
2022-09-26T00:28:54.399Z,75.60
2022-09-26T00:29:17.148Z,75.80
2022-09-26T00:29:39.950Z,75.80
2022-09-26T00:30:02.662Z,75.40
2022-09-26T00:30:25.534Z,75.30
2022-09-26T00:30:48.302Z,75.10
2022-09-26T00:31:13.400Z,75.60
2022-09-26T00:31:38.281Z,75.90
2022-09-26T00:32:02.472Z,75.90
2022-09-26T00:32:28.312Z,75.60
2022-09-26T00:32:51.088Z,74.50
2022-09-26T00:33:14.176Z,75.20
2022-09-26T00:33:36.990Z,75.30
2022-09-26T00:33:59.842Z,75.70
2022-09-26T00:34:22.733Z,75.10
2022-09-26T00:34:46.543Z,74.90
2022-09-26T00:35:10.216Z,74.90
2022-09-26T00:35:33.079Z,74.40
2022-09-26T00:35:55.908Z,75.30
2022-09-26T00:36:18.693Z,75.60
2022-09-26T00:36:41.477Z,75.60
2022-09-26T00:37:04.234Z,75.40
2022-09-26T00:37:26.992Z,75.30
2022-09-26T00:37:49.773Z,75.50
2022-09-26T00:38:12.624Z,75.50
2022-09-26T00:38:35.492Z,75.70
2022-09-26T00:38:58.157Z,76.00
2022-09-26T00:39:20.863Z,76.00
2022-09-26T00:39:43.743Z,75.80
2022-09-26T00:40:08.396Z,75.40
2022-09-26T00:40:31.349Z,75.40
2022-09-26T00:40:54.309Z,75.40
2022-09-26T00:41:17.313Z,75.60
2022-09-26T00:41:40.008Z,75.80
2022-09-26T00:42:05.693Z,75.60
2022-09-26T00:42:28.365Z,75.90
2022-09-26T00:42:51.223Z,76.10
2022-09-26T00:43:28.718Z,76.00
2022-09-26T00:43:52.673Z,75.70
2022-09-26T00:44:43.082Z,75.90
2022-09-26T00:45:07.213Z,76.00
2022-09-26T00:45:30.668Z,76.00
2022-09-26T00:45:53.756Z,76.00
2022-09-26T00:46:26.346Z,76.10
2022-09-26T00:46:49.105Z,76.30
2022-09-26T00:47:26.654Z,76.20
2022-09-26T00:47:50.673Z,76.50
2022-09-26T00:48:13.538Z,76.20
2022-09-26T00:48:36.337Z,76.00
2022-09-26T00:49:06.217Z,76.00
2022-09-26T00:49:31.207Z,76.10
2022-09-26T00:49:58.798Z,77.10
2022-09-26T00:50:23.302Z,75.90
2022-09-26T00:50:46.030Z,76.50
2022-09-26T00:51:08.818Z,76.50
2022-09-26T00:51:32.296Z,76.30
2022-09-26T00:51:57.783Z,76.20
2022-09-26T00:52:25.348Z,76.30
2022-09-26T00:52:51.551Z,76.50
2022-09-26T00:53:16.191Z,76.20
2022-09-26T00:53:41.188Z,76.40
2022-09-26T00:54:05.344Z,76.60
2022-09-26T00:54:29.217Z,76.90
2022-09-26T00:54:53.208Z,76.90
2022-09-26T00:55:18.914Z,76.90
2022-09-26T00:55:43.444Z,77.00
2022-09-26T00:56:08.499Z,77.10
2022-09-26T00:56:33.208Z,77.30
2022-09-26T00:56:57.309Z,78.00
2022-09-26T00:57:23.389Z,77.20
2022-09-26T00:57:48.063Z,77.20
2022-09-26T00:58:12.779Z,77.60
2022-09-26T00:58:39.582Z,77.50
2022-09-26T00:59:04.437Z,77.40
2022-09-26T00:59:28.706Z,77.50
2022-09-26T00:59:54.882Z,77.50
2022-09-26T01:00:17.738Z,77.70
2022-09-26T01:00:42.334Z,77.50
2022-09-26T01:01:05.632Z,77.60
2022-09-26T01:01:28.607Z,77.60
2022-09-26T01:01:51.995Z,77.80
2022-09-26T01:02:16.039Z,77.60
2022-09-26T01:02:40.418Z,77.70
2022-09-26T01:03:04.425Z,77.50
2022-09-26T01:03:27.252Z,77.60
2022-09-26T01:03:50.082Z,77.60
2022-09-26T01:04:12.857Z,77.60
2022-09-26T01:04:38.587Z,77.60
2022-09-26T01:05:01.415Z,77.70
2022-09-26T01:05:24.342Z,77.70
2022-09-26T01:05:47.134Z,77.50
2022-09-26T01:06:09.983Z,77.60
2022-09-26T01:06:33.066Z,77.70
2022-09-26T01:06:55.987Z,77.80
2022-09-26T01:07:21.300Z,77.50
2022-09-26T01:07:44.058Z,77.60
2022-09-26T01:08:06.894Z,77.90
2022-09-26T01:08:33.665Z,77.50
2022-09-26T01:08:57.940Z,77.60
2022-09-26T01:09:20.633Z,77.80
2022-09-26T01:09:43.433Z,77.70
2022-09-26T01:10:07.378Z,77.90
2022-09-26T01:10:30.280Z,78.00
2022-09-26T01:10:53.654Z,78.00
2022-09-26T01:11:17.328Z,78.10
2022-09-26T01:11:41.553Z,77.90
2022-09-26T01:12:04.934Z,78.00
2022-09-26T01:12:27.704Z,78.10
2022-09-26T01:12:50.733Z,77.90
2022-09-26T01:13:13.598Z,77.50
2022-09-26T01:13:36.828Z,78.00
2022-09-26T01:13:59.584Z,78.20
2022-09-26T01:14:26.433Z,78.10
2022-09-26T01:14:51.245Z,78.20
2022-09-26T01:15:14.007Z,78.10
2022-09-26T01:15:36.837Z,78.30
2022-09-26T01:15:59.528Z,78.40
2022-09-26T01:16:22.312Z,78.20
2022-09-26T01:16:46.332Z,78.40
2022-09-26T01:17:09.260Z,78.40
2022-09-26T01:17:32.024Z,78.40
2022-09-26T01:17:56.434Z,78.40
2022-09-26T01:18:19.367Z,78.70
2022-09-26T01:18:42.340Z,78.40
2022-09-26T01:19:08.344Z,78.30
2022-09-26T01:19:43.862Z,78.60
2022-09-26T01:20:28.036Z,78.50
2022-09-26T01:20:52.540Z,78.60
2022-09-26T01:22:03.626Z,78.70
2022-09-26T01:22:43.599Z,78.60
2022-09-26T01:23:59.910Z,78.20
2022-09-26T01:24:36.514Z,78.90
2022-09-26T01:25:07.758Z,79.10
2022-09-26T01:25:37.511Z,79.50
2022-09-26T01:26:22.957Z,79.20
2022-09-26T01:27:08.044Z,79.50
2022-09-26T01:27:43.510Z,79.80
2022-09-26T01:28:18.894Z,79.40
2022-09-26T01:28:53.657Z,79.40
2022-09-26T01:29:45.695Z,79.40
2022-09-26T01:30:12.085Z,79.40
2022-09-26T01:30:37.553Z,79.20
2022-09-26T01:31:02.173Z,79.00
2022-09-26T01:31:27.479Z,79.10
2022-09-26T01:32:12.614Z,79.30
2022-09-26T01:33:13.823Z,79.20
2022-09-26T01:33:45.593Z,79.10
2022-09-26T01:34:10.587Z,79.20
2022-09-26T01:34:35.721Z,79.30
2022-09-26T01:35:02.755Z,79.30
2022-09-26T01:35:33.226Z,79.20
2022-09-26T01:36:11.536Z,79.00
2022-09-26T01:36:54.806Z,79.20
2022-09-26T01:37:21.154Z,79.40
2022-09-26T01:37:49.393Z,79.50
2022-09-26T01:38:16.405Z,79.40
2022-09-26T01:38:45.220Z,79.40
2022-09-26T01:39:19.071Z,79.70
2022-09-26T01:39:46.266Z,79.50
2022-09-26T01:40:10.758Z,79.50
2022-09-26T01:40:36.068Z,79.50
2022-09-26T01:41:06.359Z,79.50
2022-09-26T01:41:37.008Z,79.50
2022-09-26T01:42:03.853Z,79.40
2022-09-26T01:42:29.138Z,79.30
2022-09-26T01:42:55.899Z,79.30
2022-09-26T01:43:22.633Z,79.10
2022-09-26T01:43:50.836Z,79.30
2022-09-26T01:44:27.859Z,79.30
2022-09-26T01:44:53.229Z,79.00
2022-09-26T01:45:19.062Z,79.00
2022-09-26T01:45:46.631Z,79.10
2022-09-26T01:46:14.563Z,79.10
2022-09-26T01:46:39.860Z,79.10
2022-09-26T01:47:06.229Z,79.20
2022-09-26T01:47:32.033Z,79.20
2022-09-26T01:47:57.179Z,79.10
2022-09-26T01:48:20.853Z,79.10
2022-09-26T01:48:45.332Z,79.10
2022-09-26T01:49:10.482Z,79.00
2022-09-26T01:49:35.413Z,78.90
2022-09-26T01:50:00.663Z,79.00
2022-09-26T01:50:26.630Z,78.90
2022-09-26T01:50:50.579Z,79.00
2022-09-26T01:51:14.710Z,79.00
2022-09-26T01:51:39.731Z,79.10
2022-09-26T01:52:05.296Z,79.20
2022-09-26T01:52:32.023Z,79.30
2022-09-26T01:52:56.997Z,79.90
2022-09-26T01:53:21.964Z,79.20
2022-09-26T01:53:47.380Z,78.90
2022-09-26T01:54:11.954Z,79.40
2022-09-26T01:54:37.184Z,79.10
2022-09-26T01:55:04.304Z,79.90
2022-09-26T01:55:29.996Z,78.70
2022-09-26T01:55:55.950Z,78.90
2022-09-26T01:56:20.330Z,79.00
2022-09-26T01:56:46.490Z,78.90
2022-09-26T01:57:13.948Z,78.90
2022-09-26T01:57:40.034Z,78.60
2022-09-26T01:58:05.941Z,78.70
2022-09-26T01:58:30.463Z,78.50
2022-09-26T01:58:55.245Z,78.60
2022-09-26T01:59:21.142Z,78.70
2022-09-26T01:59:45.883Z,78.60
2022-09-26T02:00:12.732Z,78.90
2022-09-26T02:00:37.405Z,78.90
2022-09-26T02:01:01.780Z,78.60
2022-09-26T02:01:26.071Z,78.50
2022-09-26T02:01:49.011Z,78.40
2022-09-26T02:02:13.562Z,78.40
2022-09-26T02:02:38.938Z,78.70
2022-09-26T02:03:01.787Z,78.40
2022-09-26T02:03:28.154Z,78.40
2022-09-26T02:03:52.776Z,79.00
2022-09-26T02:04:17.639Z,77.90
2022-09-26T02:04:41.996Z,79.80
2022-09-26T02:05:07.035Z,79.20
2022-09-26T02:05:33.001Z,78.00
2022-09-26T02:05:57.550Z,77.90
2022-09-26T02:06:22.838Z,77.90
2022-09-26T02:06:48.505Z,77.90
2022-09-26T02:07:13.074Z,79.00
2022-09-26T02:07:37.699Z,78.80
2022-09-26T02:08:03.859Z,79.20
2022-09-26T02:08:28.343Z,78.60
2022-09-26T02:08:53.898Z,79.40
2022-09-26T02:09:18.102Z,78.90
2022-09-26T02:09:42.589Z,78.80
2022-09-26T02:10:08.142Z,79.20
2022-09-26T02:10:34.490Z,78.80
2022-09-26T02:11:02.314Z,78.70
2022-09-26T02:11:25.700Z,78.80
2022-09-26T02:11:49.454Z,78.80
2022-09-26T02:12:14.768Z,79.30
2022-09-26T02:12:39.884Z,79.70
2022-09-26T02:13:08.728Z,79.60
2022-09-26T02:13:34.256Z,80.00
2022-09-26T02:13:59.813Z,80.30
2022-09-26T02:14:24.339Z,80.60
2022-09-26T02:14:47.215Z,80.30
2022-09-26T02:15:12.676Z,80.40
2022-09-26T02:15:37.299Z,80.00
2022-09-26T02:16:05.968Z,80.20
2022-09-26T02:16:30.473Z,80.20
2022-09-26T02:16:54.851Z,80.00
2022-09-26T02:17:19.219Z,80.20
2022-09-26T02:17:44.539Z,80.10
2022-09-26T02:18:13.775Z,79.60
2022-09-26T02:18:39.073Z,79.30
2022-09-26T02:19:03.164Z,78.70
2022-09-26T02:19:28.353Z,78.80
2022-09-26T02:19:52.333Z,79.10
2022-09-26T02:20:16.696Z,79.70
2022-09-26T02:20:39.568Z,80.70
2022-09-26T02:21:04.834Z,80.70
2022-09-26T02:21:27.660Z,80.90
2022-09-26T02:21:50.527Z,81.10
2022-09-26T02:22:13.324Z,81.20
2022-09-26T02:22:36.078Z,81.10
2022-09-26T02:23:03.992Z,80.80
2022-09-26T02:23:26.833Z,81.20
2022-09-26T02:23:49.888Z,81.50
2022-09-26T02:24:12.753Z,81.10
2022-09-26T02:24:35.648Z,82.00
2022-09-26T02:24:58.464Z,82.10
2022-09-26T02:25:21.163Z,82.40
2022-09-26T02:25:43.957Z,82.00
2022-09-26T02:26:07.013Z,82.40
2022-09-26T02:26:29.723Z,81.70
2022-09-26T02:26:52.514Z,81.70
2022-09-26T02:27:18.023Z,82.00
2022-09-26T02:27:40.733Z,82.10
2022-09-26T02:28:03.443Z,82.20
2022-09-26T02:28:26.397Z,82.10
2022-09-26T02:28:49.246Z,82.30
2022-09-26T02:29:13.119Z,82.40
2022-09-26T02:29:36.233Z,82.10
2022-09-26T02:29:59.118Z,82.40
2022-09-26T02:30:22.273Z,82.90
2022-09-26T02:30:46.428Z,82.30
2022-09-26T02:31:09.301Z,82.30
2022-09-26T02:31:35.682Z,82.00
2022-09-26T02:31:59.741Z,81.90
2022-09-26T02:32:25.137Z,82.50
2022-09-26T02:32:47.860Z,82.50
2022-09-26T02:33:10.567Z,81.50
2022-09-26T02:33:34.946Z,82.10
2022-09-26T02:33:57.700Z,82.10
2022-09-26T02:34:20.380Z,81.60
2022-09-26T02:34:43.462Z,81.70
2022-09-26T02:35:25.344Z,80.70
2022-09-26T02:35:56.635Z,81.50
2022-09-26T02:36:19.855Z,81.60
2022-09-26T02:36:42.788Z,82.00
2022-09-26T02:37:05.807Z,81.10
2022-09-26T02:37:31.083Z,80.70
2022-09-26T02:37:54.109Z,80.80
2022-09-26T02:38:17.813Z,81.40
2022-09-26T02:38:40.627Z,81.20
2022-09-26T02:39:03.881Z,81.20
2022-09-26T02:39:27.593Z,81.00
2022-09-26T02:39:50.839Z,81.20
2022-09-26T02:40:13.724Z,81.30
2022-09-26T02:40:42.548Z,81.30
2022-09-26T02:41:13.307Z,81.20
2022-09-26T02:41:41.877Z,80.70
2022-09-26T02:42:11.884Z,81.20
2022-09-26T02:42:36.879Z,81.00
2022-09-26T02:43:05.294Z,81.00
2022-09-26T02:43:39.865Z,81.20
2022-09-26T02:44:12.773Z,80.80
2022-09-26T02:44:42.417Z,80.80
2022-09-26T02:45:12.833Z,80.80
2022-09-26T02:45:39.264Z,80.90
2022-09-26T02:46:10.140Z,81.30
2022-09-26T02:46:48.518Z,81.30
2022-09-26T02:47:35.183Z,81.30
2022-09-26T02:48:22.888Z,81.00
2022-09-26T02:48:52.592Z,81.10
2022-09-26T02:49:24.729Z,81.10
2022-09-26T02:49:55.325Z,81.00
2022-09-26T02:50:25.202Z,81.00
2022-09-26T02:51:08.143Z,81.10
2022-09-26T02:51:50.303Z,81.20
2022-09-26T02:52:24.418Z,81.20
2022-09-26T02:52:53.507Z,81.20
2022-09-26T02:53:24.995Z,81.10
2022-09-26T02:54:05.780Z,81.10
2022-09-26T02:54:31.218Z,81.10
2022-09-26T02:54:58.688Z,81.10
2022-09-26T02:55:22.626Z,81.20
2022-09-26T02:55:48.046Z,81.30
2022-09-26T02:56:14.597Z,81.30
2022-09-26T02:56:42.330Z,81.30
2022-09-26T02:57:11.549Z,81.30
2022-09-26T02:57:40.914Z,81.30
2022-09-26T02:58:07.483Z,81.30
2022-09-26T02:58:36.364Z,81.30
2022-09-26T02:59:03.444Z,81.30
2022-09-26T02:59:29.636Z,81.30
2022-09-26T02:59:54.911Z,81.30
2022-09-26T03:00:18.948Z,81.30
2022-09-26T03:00:48.716Z,81.30
2022-09-26T03:01:16.451Z,81.30
2022-09-26T03:01:42.983Z,81.30
2022-09-26T03:02:10.168Z,81.30
2022-09-26T03:02:38.550Z,81.30
2022-09-26T03:03:03.591Z,81.40
2022-09-26T03:03:30.684Z,81.40
2022-09-26T03:03:54.093Z,81.50
2022-09-26T03:04:21.042Z,81.50
2022-09-26T03:04:46.832Z,81.50
2022-09-26T03:05:11.550Z,81.50
2022-09-26T03:05:35.540Z,81.60
2022-09-26T03:05:58.713Z,81.50
2022-09-26T03:06:24.668Z,81.50
2022-09-26T03:06:48.711Z,81.80
2022-09-26T03:07:14.059Z,81.80
2022-09-26T03:07:41.849Z,81.70
2022-09-26T03:08:07.815Z,81.60
2022-09-26T03:08:32.761Z,81.90
2022-09-26T03:08:55.559Z,81.80
2022-09-26T03:09:18.364Z,81.90
2022-09-26T03:09:41.158Z,81.70
2022-09-26T03:10:04.981Z,81.80
2022-09-26T03:10:27.729Z,81.40
2022-09-26T03:10:50.394Z,81.30
2022-09-26T03:11:14.419Z,81.30
2022-09-26T03:11:37.182Z,81.30
2022-09-26T03:12:01.583Z,81.40
2022-09-26T03:12:24.814Z,81.40
2022-09-26T03:12:47.571Z,81.90
2022-09-26T03:13:11.694Z,81.70
2022-09-26T03:13:35.373Z,81.50
2022-09-26T03:13:58.150Z,81.40
2022-09-26T03:14:21.934Z,81.50
2022-09-26T03:14:44.683Z,81.10
2022-09-26T03:15:09.199Z,81.30
2022-09-26T03:15:32.034Z,81.30
2022-09-26T03:15:56.577Z,81.90
2022-09-26T03:16:21.304Z,81.20
2022-09-26T03:16:45.078Z,81.10
2022-09-26T03:17:07.992Z,81.10
2022-09-26T03:17:31.378Z,81.20
2022-09-26T03:17:54.578Z,81.30
2022-09-26T03:18:20.049Z,81.40
2022-09-26T03:18:45.779Z,81.40
2022-09-26T03:19:10.968Z,81.30
2022-09-26T03:19:35.787Z,81.20
2022-09-26T03:20:01.625Z,81.20
2022-09-26T03:20:25.368Z,81.20
2022-09-26T03:20:48.173Z,81.10
2022-09-26T03:21:10.889Z,81.10
2022-09-26T03:21:37.007Z,81.10
2022-09-26T03:22:02.556Z,81.00
2022-09-26T03:22:25.576Z,81.00
2022-09-26T03:22:48.352Z,80.90
2022-09-26T03:23:11.268Z,80.90
2022-09-26T03:23:36.343Z,80.90
2022-09-26T03:23:59.460Z,81.00
2022-09-26T03:24:23.293Z,81.10
2022-09-26T03:24:46.880Z,81.10
2022-09-26T03:25:13.944Z,81.10
2022-09-26T03:25:36.978Z,81.00
2022-09-26T03:26:01.064Z,81.00
2022-09-26T03:26:24.839Z,81.10
2022-09-26T03:26:47.670Z,81.80
2022-09-26T03:27:12.520Z,81.20
2022-09-26T03:27:38.118Z,81.90
2022-09-26T03:28:02.435Z,81.90
2022-09-26T03:28:25.153Z,82.00
2022-09-26T03:28:47.917Z,81.40
2022-09-26T03:29:10.657Z,81.50
2022-09-26T03:29:33.435Z,81.60
2022-09-26T03:29:56.105Z,81.60
2022-09-26T03:30:18.989Z,81.50
2022-09-26T03:30:41.801Z,82.30
2022-09-26T03:31:04.728Z,82.20
2022-09-26T03:31:29.182Z,82.10
2022-09-26T03:31:52.074Z,82.10
2022-09-26T03:32:14.977Z,82.10
2022-09-26T03:32:37.815Z,82.10
2022-09-26T03:33:03.253Z,82.10
2022-09-26T03:33:26.183Z,82.00
2022-09-26T03:33:48.978Z,81.60
2022-09-26T03:34:11.738Z,81.70
2022-09-26T03:34:34.553Z,81.60
2022-09-26T03:34:57.473Z,81.50
2022-09-26T03:35:20.990Z,81.50
2022-09-26T03:35:43.702Z,81.50
2022-09-26T03:36:07.094Z,81.50
2022-09-26T03:36:32.342Z,81.50
2022-09-26T03:36:55.068Z,81.40
2022-09-26T03:37:18.073Z,81.40
2022-09-26T03:37:40.924Z,81.40
2022-09-26T03:38:03.704Z,81.40
2022-09-26T03:38:26.425Z,81.40
2022-09-26T03:38:49.168Z,81.40
2022-09-26T03:39:12.069Z,81.50
2022-09-26T03:39:35.009Z,81.50
2022-09-26T03:39:57.773Z,81.50
2022-09-26T03:40:20.601Z,81.50
2022-09-26T03:40:44.066Z,81.50
2022-09-26T03:41:09.640Z,81.50
2022-09-26T03:41:33.156Z,81.50
2022-09-26T03:41:57.979Z,81.50
2022-09-26T03:42:20.760Z,81.40
2022-09-26T03:42:43.548Z,81.30
2022-09-26T03:43:06.309Z,82.10
2022-09-26T03:43:29.794Z,81.40
2022-09-26T03:43:52.866Z,81.40
2022-09-26T03:44:16.193Z,81.20
2022-09-26T03:44:38.893Z,81.10
2022-09-26T03:45:01.754Z,81.10
2022-09-26T03:45:24.533Z,81.10
2022-09-26T03:45:47.469Z,81.10
2022-09-26T03:46:12.063Z,81.10
2022-09-26T03:46:40.072Z,81.50
2022-09-26T03:47:03.564Z,81.10
2022-09-26T03:47:26.953Z,81.10
2022-09-26T03:47:55.983Z,81.20
2022-09-26T03:48:21.393Z,81.20
2022-09-26T03:48:44.195Z,81.20
2022-09-26T03:49:07.054Z,81.20
2022-09-26T03:49:29.803Z,81.80
2022-09-26T03:49:52.712Z,81.70
2022-09-26T03:50:15.671Z,81.70
2022-09-26T03:50:38.423Z,81.70
2022-09-26T03:51:04.151Z,81.70
2022-09-26T03:51:28.183Z,81.80
2022-09-26T03:51:51.119Z,81.20
2022-09-26T03:52:17.140Z,81.00
2022-09-26T03:52:40.029Z,81.10
2022-09-26T03:53:02.838Z,81.10
2022-09-26T03:53:25.905Z,81.10
2022-09-26T03:53:48.736Z,81.10
2022-09-26T03:54:12.334Z,81.10
2022-09-26T03:54:35.224Z,81.00
2022-09-26T03:54:58.004Z,81.00
2022-09-26T03:55:20.753Z,81.00
2022-09-26T03:55:43.537Z,81.00
2022-09-26T03:56:07.006Z,80.80
2022-09-26T03:56:29.784Z,80.80
2022-09-26T03:56:52.664Z,80.80
2022-09-26T03:57:16.375Z,80.90
2022-09-26T03:57:39.058Z,81.00
2022-09-26T03:58:02.144Z,80.80
2022-09-26T03:58:25.490Z,80.70
2022-09-26T03:58:49.443Z,80.70
2022-09-26T03:59:15.218Z,80.70
2022-09-26T03:59:38.348Z,80.60
2022-09-26T04:00:01.145Z,80.60
2022-09-26T04:00:24.130Z,80.70
2022-09-26T04:00:47.071Z,80.70
2022-09-26T04:01:10.782Z,80.80
2022-09-26T04:01:35.136Z,81.10
2022-09-26T04:01:57.957Z,81.10
2022-09-26T04:02:21.368Z,81.40
2022-09-26T04:02:44.345Z,81.10
2022-09-26T04:03:07.250Z,81.10
2022-09-26T04:03:32.184Z,81.30
2022-09-26T04:03:56.190Z,81.80
2022-09-26T04:04:18.937Z,81.10
2022-09-26T04:04:41.708Z,80.90
2022-09-26T04:05:04.879Z,80.90
2022-09-26T04:05:28.822Z,80.90
2022-09-26T04:05:51.654Z,80.90
2022-09-26T04:06:15.877Z,80.70
2022-09-26T04:06:38.633Z,80.70
2022-09-26T04:07:01.359Z,80.80
2022-09-26T04:07:24.335Z,80.90
2022-09-26T04:07:47.376Z,80.40
2022-09-26T04:08:10.320Z,80.50
2022-09-26T04:08:33.109Z,80.70
2022-09-26T04:08:56.338Z,80.80
2022-09-26T04:09:19.399Z,80.80
2022-09-26T04:09:42.538Z,80.90
2022-09-26T04:10:06.760Z,80.90
2022-09-26T04:10:29.753Z,81.00
2022-09-26T04:10:52.483Z,81.00
2022-09-26T04:11:17.322Z,81.00
2022-09-26T04:11:40.014Z,81.00
2022-09-26T04:12:02.728Z,81.00
2022-09-26T04:12:26.104Z,81.00
2022-09-26T04:12:48.829Z,80.90
2022-09-26T04:13:19.881Z,80.90
2022-09-26T04:13:54.565Z,80.70
2022-09-26T04:14:17.808Z,80.50
2022-09-26T04:14:40.565Z,80.40
2022-09-26T04:15:03.358Z,80.40
2022-09-26T04:15:26.413Z,80.40
2022-09-26T04:15:56.406Z,80.20
2022-09-26T04:16:20.528Z,80.40
2022-09-26T04:16:45.050Z,80.00
2022-09-26T04:17:08.193Z,79.80
2022-09-26T04:17:31.008Z,80.00
2022-09-26T04:17:54.413Z,80.60
2022-09-26T04:18:17.159Z,80.70
2022-09-26T04:18:39.888Z,80.80
2022-09-26T04:19:02.714Z,80.80
2022-09-26T04:19:26.752Z,80.80
2022-09-26T04:19:49.547Z,80.80
2022-09-26T04:20:12.354Z,80.10
2022-09-26T04:20:35.196Z,80.20
2022-09-26T04:20:59.087Z,80.20
2022-09-26T04:21:21.768Z,80.10
2022-09-26T04:21:45.469Z,80.00
2022-09-26T04:22:08.233Z,79.70
2022-09-26T04:22:31.099Z,80.30
2022-09-26T04:22:54.919Z,80.20
2022-09-26T04:23:17.784Z,80.00
2022-09-26T04:23:41.454Z,80.20
2022-09-26T04:24:04.369Z,80.20
2022-09-26T04:24:27.237Z,80.20
2022-09-26T04:24:49.943Z,80.20
2022-09-26T04:25:12.738Z,80.00
2022-09-26T04:25:37.788Z,79.90
2022-09-26T04:26:04.351Z,80.00
2022-09-26T04:26:27.172Z,80.00
2022-09-26T04:26:49.874Z,80.40
2022-09-26T04:27:12.548Z,80.40
2022-09-26T04:27:36.194Z,79.80
2022-09-26T04:27:59.332Z,80.20
2022-09-26T04:28:22.178Z,80.20
2022-09-26T04:28:46.335Z,80.20
2022-09-26T04:29:09.121Z,79.80
2022-09-26T04:29:32.033Z,79.60
2022-09-26T04:29:57.342Z,79.50
2022-09-26T04:30:20.283Z,79.80
2022-09-26T04:30:43.068Z,79.80
2022-09-26T04:31:06.809Z,80.00
2022-09-26T04:31:29.657Z,79.80
2022-09-26T04:31:53.914Z,79.40
2022-09-26T04:32:17.168Z,79.70
2022-09-26T04:32:39.887Z,79.80
2022-09-26T04:33:02.601Z,80.00
2022-09-26T04:33:25.358Z,80.10
2022-09-26T04:33:48.181Z,80.10
2022-09-26T04:34:11.733Z,80.00
2022-09-26T04:34:34.548Z,79.80
2022-09-26T04:34:57.294Z,79.90
2022-09-26T04:35:20.198Z,79.90
2022-09-26T04:35:44.029Z,80.00
2022-09-26T04:36:08.820Z,80.20
2022-09-26T04:36:31.839Z,80.20
2022-09-26T04:36:54.766Z,80.20
2022-09-26T04:37:17.865Z,80.20
2022-09-26T04:37:42.257Z,80.20
2022-09-26T04:38:05.633Z,80.20
2022-09-26T04:38:34.297Z,80.20
2022-09-26T04:39:00.737Z,80.40
2022-09-26T04:39:23.610Z,80.30
2022-09-26T04:39:46.419Z,80.20
2022-09-26T04:40:11.574Z,80.00
2022-09-26T04:40:35.748Z,79.60
2022-09-26T04:41:04.587Z,79.40
2022-09-26T04:41:27.901Z,79.20
2022-09-26T04:41:51.578Z,79.20
2022-09-26T04:42:17.460Z,79.20
2022-09-26T04:42:41.778Z,79.30
2022-09-26T04:43:04.602Z,79.40
2022-09-26T04:43:27.314Z,79.40
2022-09-26T04:43:50.166Z,79.30
2022-09-26T04:44:13.144Z,79.20
2022-09-26T04:44:35.887Z,79.10
2022-09-26T04:44:58.715Z,79.00
2022-09-26T04:45:21.613Z,79.00
2022-09-26T04:45:44.912Z,79.20
2022-09-26T04:46:08.637Z,79.40
2022-09-26T04:46:31.750Z,80.20
2022-09-26T04:46:55.967Z,80.20
2022-09-26T04:47:18.748Z,79.40
2022-09-26T04:47:41.668Z,79.60
2022-09-26T04:48:04.599Z,81.00
2022-09-26T04:48:27.393Z,80.40
2022-09-26T04:48:50.418Z,79.90
2022-09-26T04:49:13.317Z,80.00
2022-09-26T04:49:36.513Z,80.00
2022-09-26T04:49:59.238Z,80.10
2022-09-26T04:50:21.975Z,80.20
2022-09-26T04:50:44.908Z,80.20
2022-09-26T04:51:08.182Z,80.20
2022-09-26T04:51:32.032Z,80.40
2022-09-26T04:51:55.923Z,80.40
2022-09-26T04:52:18.759Z,80.50
2022-09-26T04:52:41.534Z,80.40
2022-09-26T04:53:06.754Z,80.40
2022-09-26T04:53:29.545Z,80.30
2022-09-26T04:53:52.463Z,80.30
2022-09-26T04:54:16.373Z,80.30
2022-09-26T04:54:39.242Z,80.20
2022-09-26T04:55:01.928Z,80.20
2022-09-26T04:55:27.337Z,80.10
2022-09-26T04:55:50.372Z,80.20
2022-09-26T04:56:14.207Z,80.30
2022-09-26T04:56:36.993Z,80.40
2022-09-26T04:57:00.520Z,80.40
2022-09-26T04:57:23.288Z,80.30
2022-09-26T04:57:46.755Z,80.20
2022-09-26T04:58:09.532Z,80.40
2022-09-26T04:58:32.634Z,80.40
2022-09-26T04:58:56.623Z,80.40
2022-09-26T04:59:19.813Z,80.40
2022-09-26T04:59:42.572Z,80.40
2022-09-26T05:00:07.587Z,80.40
2022-09-26T05:00:30.409Z,80.40
2022-09-26T05:00:53.360Z,80.20
2022-09-26T05:01:17.332Z,80.20
2022-09-26T05:01:40.419Z,80.20
2022-09-26T05:02:06.615Z,80.10
2022-09-26T05:02:30.503Z,80.10
2022-09-26T05:02:54.273Z,80.10
2022-09-26T05:03:17.516Z,80.10
2022-09-26T05:03:40.981Z,80.10
2022-09-26T05:04:04.376Z,80.10
2022-09-26T05:04:27.899Z,79.80
2022-09-26T05:04:51.423Z,79.90
2022-09-26T05:05:14.448Z,79.90
2022-09-26T05:05:37.133Z,79.70
2022-09-26T05:06:00.249Z,79.70
2022-09-26T05:06:23.187Z,79.70
2022-09-26T05:06:45.959Z,79.70
2022-09-26T05:07:08.691Z,79.50
2022-09-26T05:07:31.525Z,79.40
2022-09-26T05:07:54.303Z,80.10
2022-09-26T05:08:17.158Z,79.90
2022-09-26T05:08:41.437Z,80.00
2022-09-26T05:09:04.846Z,79.40
2022-09-26T05:09:27.762Z,79.70
2022-09-26T05:09:50.662Z,79.80
2022-09-26T05:10:13.422Z,80.00
2022-09-26T05:10:36.137Z,80.10
2022-09-26T05:10:59.113Z,80.10
2022-09-26T05:11:21.917Z,80.10
2022-09-26T05:11:44.748Z,79.90
2022-09-26T05:12:07.493Z,80.10
2022-09-26T05:12:33.149Z,80.20
2022-09-26T05:12:58.773Z,80.20
2022-09-26T05:13:22.099Z,80.40
2022-09-26T05:13:45.346Z,80.30
2022-09-26T05:14:08.994Z,80.50
2022-09-26T05:14:31.914Z,80.50
2022-09-26T05:14:56.916Z,80.60
2022-09-26T05:15:19.693Z,80.80
2022-09-26T05:15:43.220Z,81.00
2022-09-26T05:16:06.972Z,81.10
2022-09-26T05:16:30.365Z,81.10
2022-09-26T05:16:54.179Z,81.10
2022-09-26T05:17:21.144Z,81.40
2022-09-26T05:17:45.778Z,81.40
2022-09-26T05:18:08.589Z,81.50
2022-09-26T05:18:31.761Z,81.50
2022-09-26T05:18:56.056Z,81.50
2022-09-26T05:19:18.988Z,81.50
2022-09-26T05:19:43.238Z,81.50
2022-09-26T05:20:10.115Z,81.40
2022-09-26T05:20:32.869Z,81.40
2022-09-26T05:20:55.957Z,81.40